Time;durP1;ratioP1;P1;durP2;ratioP2;P2;SDS_P1;SDS_P2;PMS_P1;PMS_P2;Temp;Humidity;BMP_temperature;BMP_pressure;BME280_temperature;BME280_humidity;BME280_pressure;Samples;Min_cycle;Max_cycle;Signal;HPM_P1;HPM_P2
2021/08/17 00:03:50;;;;;;;5.90;3.30;;;;;;;12.79;53.81;101368.78;7982505;28;20044;-65
2021/08/17 00:07:40;;;;;;;6.53;3.28;;;;;;;12.77;53.85;101367.16;7989556;28;20124;-65
2021/08/17 00:11:31;;;;;;;9.55;3.50;;;;;;;12.78;53.92;101368.88;7979544;28;20035;-65
2021/08/17 00:15:22;;;;;;;6.55;3.60;;;;;;;12.77;53.93;101361.88;7980213;28;20029;-65
2021/08/17 00:19:12;;;;;;;7.07;3.80;;;;;;;12.76;54.00;101365.50;7976981;28;20049;-65
2021/08/17 00:23:05;;;;;;;9.55;4.10;;;;;;;12.75;53.94;101363.81;7977812;28;20046;-65
2021/08/17 00:26:55;;;;;;;8.25;3.60;;;;;;;12.74;54.12;101362.97;7979988;28;20127;-65
2021/08/17 00:30:46;;;;;;;10.32;4.55;;;;;;;12.73;54.07;101361.25;7983325;28;20620;-65
2021/08/17 00:34:37;;;;;;;10.95;5.47;;;;;;;12.71;54.16;101363.16;7984943;28;20037;-65
2021/08/17 00:38:27;;;;;;;12.32;5.28;;;;;;;12.69;54.30;101365.06;7987108;28;20033;-65
2021/08/17 00:42:18;;;;;;;10.55;5.35;;;;;;;12.67;54.27;101372.22;7985498;28;20033;-65
2021/08/17 00:46:08;;;;;;;12.57;5.00;;;;;;;12.57;54.52;101355.28;7986632;28;20037;-65
2021/08/17 00:49:59;;;;;;;14.50;5.18;;;;;;;12.63;54.42;101369.91;7988615;28;20040;-65
2021/08/17 00:53:53;;;;;;;11.10;5.95;;;;;;;12.61;54.47;101369.16;7988459;28;20029;-65
2021/08/17 00:57:45;;;;;;;10.98;5.70;;;;;;;12.59;54.50;101358.72;7981253;28;20029;-65
2021/08/17 01:01:36;;;;;;;11.50;5.78;;;;;;;12.60;54.69;101367.47;7960849;28;20165;-65
2021/08/17 01:05:29;;;;;;;15.07;7.28;;;;;;;12.60;54.81;101373.56;7984009;28;20028;-65
2021/08/17 01:09:20;;;;;;;11.93;6.38;;;;;;;12.61;54.80;101372.63;7984437;28;20482;-65
2021/08/17 01:13:10;;;;;;;14.77;7.15;;;;;;;12.60;54.92;101364.84;7981244;28;20094;-65
2021/08/17 01:17:02;;;;;;;12.80;6.57;;;;;;;12.61;54.83;101362.09;7975497;28;20068;-65
2021/08/17 01:20:54;;;;;;;16.60;7.80;;;;;;;12.61;54.95;101367.34;7986818;28;20086;-65
2021/08/17 01:24:44;;;;;;;14.05;6.50;;;;;;;12.60;55.09;101359.56;7987185;28;20374;-65
2021/08/17 01:28:35;;;;;;;17.92;8.18;;;;;;;12.58;55.04;101350.91;7989010;28;20029;-65
2021/08/17 01:32:26;;;;;;;18.95;9.02;;;;;;;12.59;55.19;101366.63;7984449;28;20040;-65
2021/08/17 01:36:17;;;;;;;13.90;7.22;;;;;;;12.58;55.09;101362.28;7992192;28;20017;-65
2021/08/17 01:40:10;;;;;;;15.20;7.57;;;;;;;12.59;55.43;101369.25;7999998;28;20073;-65
2021/08/17 01:44:12;;;;;;;21.27;9.95;;;;;;;12.57;55.32;101365.00;7983003;28;20178;-65
2021/08/17 01:48:05;;;;;;;18.67;8.15;;;;;;;12.58;55.27;101369.34;7982195;28;20037;-65
2021/08/17 01:51:56;;;;;;;17.17;7.93;;;;;;;12.58;55.46;101372.00;7981805;28;20031;-65
2021/08/17 01:55:46;;;;;;;18.42;8.60;;;;;;;12.57;55.42;101370.25;7981319;28;20067;-65
2021/08/17 01:59:37;;;;;;;19.92;9.50;;;;;;;12.53;55.32;101365.19;7981549;28;20043;-65
2021/08/17 02:03:27;;;;;;;18.80;9.02;;;;;;;12.52;55.45;101363.50;7982585;28;20154;-65
2021/08/17 02:07:18;;;;;;;15.35;8.00;;;;;;;12.52;55.49;101360.88;7984439;28;20037;-65
2021/08/17 02:11:09;;;;;;;14.77;8.13;;;;;;;12.51;55.25;101361.84;7984638;28;20034;-65
2021/08/17 02:14:59;;;;;;;17.40;8.48;;;;;;;12.49;55.27;101365.50;7984875;28;20034;-65
2021/08/17 02:18:50;;;;;;;15.45;7.40;;;;;;;12.48;55.71;101366.44;7986906;28;20558;-65
2021/08/17 02:22:40;;;;;;;16.85;9.15;;;;;;;12.46;55.62;101365.72;7980380;28;20033;-65
2021/08/17 02:26:31;;;;;;;13.05;7.45;;;;;;;12.45;55.40;101367.50;7990726;28;20082;-65
2021/08/17 02:30:21;;;;;;;16.05;8.23;;;;;;;12.42;55.68;101369.50;7989730;28;20075;-65
2021/08/17 02:34:12;;;;;;;16.77;8.57;;;;;;;12.41;55.79;101371.28;7988599;28;20041;-66
2021/08/17 02:38:05;;;;;;;13.40;7.38;;;;;;;12.41;55.62;101373.06;7972302;28;20090;-65
2021/08/17 02:41:55;;;;;;;12.70;7.55;;;;;;;12.41;55.54;101376.56;7977655;28;20030;-65
2021/08/17 02:45:46;;;;;;;15.18;9.00;;;;;;;12.40;55.70;101374.00;7980176;28;20032;-65
2021/08/17 02:49:37;;;;;;;15.52;7.57;;;;;;;12.37;55.78;101371.59;7983417;28;20057;-65
2021/08/17 02:53:27;;;;;;;17.23;8.25;;;;;;;12.36;55.69;101373.38;7986804;28;20373;-65
2021/08/17 02:57:19;;;;;;;13.88;7.25;;;;;;;12.36;55.64;101377.78;7992891;28;20038;-65
2021/08/17 03:01:09;;;;;;;18.50;8.95;;;;;;;12.35;55.66;101373.50;7975526;28;20115;-65
2021/08/17 03:05:00;;;;;;;19.42;9.15;;;;;;;12.31;55.80;101369.38;7988154;28;20533;-65
2021/08/17 03:08:50;;;;;;;16.67;8.32;;;;;;;12.30;55.99;101380.84;7990261;28;20037;-65
2021/08/17 03:12:41;;;;;;;16.63;7.78;;;;;;;12.29;55.99;101371.25;7970062;28;20037;-65
2021/08/17 03:16:32;;;;;;;12.45;7.22;;;;;;;12.27;55.88;101373.16;7992510;28;20032;-65
2021/08/17 03:20:22;;;;;;;14.52;8.10;;;;;;;12.26;56.08;101374.94;7989908;28;20032;-65
2021/08/17 03:24:13;;;;;;;12.73;7.65;;;;;;;12.25;56.06;101370.59;7988985;28;20088;-65
2021/08/17 03:28:04;;;;;;;18.15;7.82;;;;;;;12.23;56.13;101367.22;7978802;28;20051;-65
2021/08/17 03:31:55;;;;;;;14.40;7.38;;;;;;;12.22;56.09;101370.81;7984150;28;20028;-65
2021/08/17 03:35:47;;;;;;;16.35;7.93;;;;;;;12.20;56.07;101367.41;7976401;28;20032;-65
2021/08/17 03:39:37;;;;;;;14.18;6.85;;;;;;;12.19;56.69;101370.97;7977570;28;20083;-65
2021/08/17 03:43:28;;;;;;;16.67;7.00;;;;;;;12.19;56.22;101367.50;7977099;28;20037;-65
2021/08/17 03:47:19;;;;;;;14.02;7.55;;;;;;;12.20;56.16;101358.66;7978313;28;20025;-65
2021/08/17 03:51:10;;;;;;;16.95;7.95;;;;;;;12.21;56.30;101376.16;7979988;28;20029;-65
2021/08/17 03:55:00;;;;;;;15.27;8.18;;;;;;;12.20;56.47;101369.19;7981845;28;20041;-65
2021/08/17 03:58:51;;;;;;;18.27;7.95;;;;;;;12.22;56.38;101360.28;7982701;28;20086;-65
2021/08/17 04:02:42;;;;;;;22.25;7.90;;;;;;;12.21;56.50;101371.75;7983227;28;20394;-65
2021/08/17 04:06:32;;;;;;;18.42;7.22;;;;;;;12.22;56.56;101375.22;7988022;28;20037;-65
2021/08/17 04:10:23;;;;;;;13.70;7.22;;;;;;;12.25;56.26;101375.88;7987797;28;20025;-65
2021/08/17 04:14:13;;;;;;;13.63;7.57;;;;;;;12.27;56.51;101365.25;7987929;28;20069;-65
2021/08/17 04:18:04;;;;;;;16.05;8.73;;;;;;;12.26;56.50;101369.66;7990354;28;20440;-65
2021/08/17 04:21:54;;;;;;;14.45;7.90;;;;;;;12.26;56.59;101369.66;7974126;28;20033;-65
2021/08/17 04:25:46;;;;;;;15.77;8.40;;;;;;;12.27;56.72;101373.16;7975163;28;20022;-65
2021/08/17 04:29:38;;;;;;;17.30;8.35;;;;;;;12.27;56.92;101381.88;7977994;28;20034;-65
2021/08/17 04:33:29;;;;;;;17.08;9.00;;;;;;;12.27;56.75;101376.59;7968564;28;20036;-65
2021/08/17 04:37:19;;;;;;;18.08;8.30;;;;;;;12.22;56.52;101373.44;7986621;28;20093;-65
2021/08/17 04:41:10;;;;;;;15.50;7.53;;;;;;;12.29;56.91;101395.81;7987915;28;20124;-65
2021/08/17 04:45:01;;;;;;;20.20;9.20;;;;;;;12.19;56.91;101370.13;7987782;28;20033;-65
2021/08/17 04:48:51;;;;;;;16.55;8.10;;;;;;;12.33;56.73;101391.16;7989036;28;20033;-65
2021/08/17 04:52:42;;;;;;;17.13;8.02;;;;;;;12.34;56.81;101392.88;7988980;28;20082;-65
2021/08/17 04:56:32;;;;;;;20.92;8.63;;;;;;;12.36;56.78;101406.78;7989667;28;20036;-65
2021/08/17 05:00:25;;;;;;;14.90;7.57;;;;;;;12.38;57.22;101400.47;7986047;28;20037;-65
2021/08/17 05:04:16;;;;;;;16.65;8.20;;;;;;;12.43;56.73;101424.72;7990444;28;20032;-65
2021/08/17 05:08:11;;;;;;;13.18;7.03;;;;;;;12.50;56.75;101425.19;7992246;28;20037;-65
2021/08/17 05:12:02;;;;;;;20.27;7.47;;;;;;;12.58;57.00;101424.69;7997253;28;20033;-64
2021/08/17 05:15:54;;;;;;;14.50;7.50;;;;;;;12.65;57.15;101418.91;8011372;28;20388;-65
2021/08/17 05:19:44;;;;;;;17.48;8.43;;;;;;;12.69;56.83;101422.19;7984683;28;20814;-65
2021/08/17 05:23:35;;;;;;;18.08;9.13;;;;;;;12.71;56.98;101409.78;7991878;28;20041;-65
2021/08/17 05:27:26;;;;;;;14.38;7.28;;;;;;;12.71;57.02;101405.34;8010724;28;20059;-64
2021/08/17 05:31:16;;;;;;;14.90;8.88;;;;;;;12.68;56.89;101399.44;8010758;28;20045;-65
2021/08/17 05:35:08;;;;;;;17.08;7.95;;;;;;;12.73;56.77;101407.88;7992706;28;20071;-65
2021/08/17 05:38:58;;;;;;;17.48;8.70;;;;;;;12.76;57.05;101431.41;7988224;28;20044;-64
2021/08/17 05:42:49;;;;;;;16.98;7.70;;;;;;;12.75;56.83;101430.56;7978525;28;20041;-64
2021/08/17 05:46:39;;;;;;;18.13;8.32;;;;;;;12.80;57.22;101433.75;7988392;28;20037;-65
2021/08/17 05:50:30;;;;;;;17.10;8.55;;;;;;;12.87;57.23;101429.75;7991507;28;20029;-64
2021/08/17 05:54:23;;;;;;;15.43;7.20;;;;;;;12.88;57.18;101406.84;7987284;28;20479;-64
2021/08/17 05:58:13;;;;;;;12.57;6.60;;;;;;;13.07;57.32;101427.53;7984201;28;20044;-65
2021/08/17 06:02:05;;;;;;;18.27;8.57;;;;;;;13.23;57.38;101412.34;8005298;28;20036;-64
2021/08/17 06:05:59;;;;;;;16.98;8.02;;;;;;;13.49;57.28;101421.13;8009731;28;20052;-65
2021/08/17 06:09:51;;;;;;;18.20;9.20;;;;;;;13.67;57.31;101423.38;8009957;28;20043;-65
2021/08/17 06:13:41;;;;;;;14.93;8.18;;;;;;;13.86;57.03;101425.53;8003658;28;20021;-65
2021/08/17 06:17:32;;;;;;;20.75;9.20;;;;;;;13.98;57.30;101429.94;7981536;28;20049;-65
2021/08/17 06:21:23;;;;;;;26.10;9.95;;;;;;;14.21;57.23;101433.59;8009300;28;20037;-65
2021/08/17 06:25:13;;;;;;;15.88;7.93;;;;;;;14.45;57.21;101429.19;8009269;28;20055;-65
2021/08/17 06:29:04;;;;;;;18.75;9.43;;;;;;;14.74;57.19;101427.03;7990429;28;20405;-65
2021/08/17 06:32:56;;;;;;;18.23;8.77;;;;;;;15.02;57.21;101431.06;7985333;28;20033;-65
2021/08/17 06:36:46;;;;;;;21.52;9.10;;;;;;;15.36;57.29;101427.56;7991397;28;20094;-65
2021/08/17 06:40:37;;;;;;;15.82;8.50;;;;;;;15.89;57.06;101425.13;7985995;28;20163;-65
2021/08/17 06:44:27;;;;;;;15.52;8.20;;;;;;;16.51;56.98;101420.94;8008272;28;20029;-65
2021/08/17 06:48:18;;;;;;;20.88;8.75;;;;;;;16.87;56.51;101413.50;8008698;28;20059;-65
2021/08/17 06:52:09;;;;;;;21.52;10.15;;;;;;;16.88;56.04;101415.19;8003742;28;20047;-65
2021/08/17 06:55:59;;;;;;;17.08;8.40;;;;;;;16.81;55.73;101414.03;7990590;28;20041;-65
2021/08/17 06:59:50;;;;;;;17.10;8.75;;;;;;;16.68;55.63;101405.41;7999385;28;20044;-65
2021/08/17 07:03:41;;;;;;;18.98;8.07;;;;;;;16.54;55.52;101411.88;7986526;28;20029;-65
2021/08/17 07:07:32;;;;;;;18.42;8.90;;;;;;;16.46;55.52;101412.50;8005616;28;20036;-65
2021/08/17 07:11:22;;;;;;;16.75;7.80;;;;;;;16.38;55.58;101414.09;7977714;28;20646;-65
2021/08/17 07:15:13;;;;;;;23.42;9.38;;;;;;;16.29;55.34;101415.69;7971037;28;20687;-65
2021/08/17 07:19:04;;;;;;;14.02;8.43;;;;;;;16.38;55.31;101419.41;7967519;28;20038;-65
2021/08/17 07:22:55;;;;;;;18.08;8.77;;;;;;;16.51;55.39;101412.13;7990178;28;20425;-65
2021/08/17 07:26:46;;;;;;;23.67;9.20;;;;;;;16.45;55.07;101425.91;7985444;28;20409;-66
2021/08/17 07:30:38;;;;;;;19.25;8.95;;;;;;;16.22;54.95;101406.56;7969464;28;20568;-65
2021/08/17 07:34:29;;;;;;;18.50;8.93;;;;;;;16.14;55.23;101416.94;7973405;28;20029;-65
2021/08/17 07:38:19;;;;;;;16.88;7.97;;;;;;;16.03;55.17;101425.75;7991735;28;20401;-65
2021/08/17 07:42:10;;;;;;;15.63;8.48;;;;;;;16.05;55.17;101417.66;7998498;28;20041;-65
2021/08/17 07:46:00;;;;;;;14.35;8.38;;;;;;;16.38;55.11;101417.59;7978045;28;20034;-65
2021/08/17 07:49:51;;;;;;;18.63;8.63;;;;;;;16.66;54.91;101408.19;7975281;28;20041;-65
2021/08/17 07:53:42;;;;;;;12.98;7.50;;;;;;;16.86;54.91;101410.03;7986415;28;20037;-65
2021/08/17 07:57:33;;;;;;;14.35;7.45;;;;;;;17.22;54.43;101419.38;7982165;28;20067;-64
2021/08/17 08:01:23;;;;;;;14.52;8.63;;;;;;;17.81;54.04;101424.00;7975032;28;20040;-64
2021/08/17 08:05:14;;;;;;;14.52;7.18;;;;;;;18.25;53.75;101423.56;7983972;28;20032;-65
2021/08/17 08:09:04;;;;;;;15.45;8.50;;;;;;;18.32;53.46;101430.00;7988041;28;20021;-65
2021/08/17 08:12:55;;;;;;;14.57;7.60;;;;;;;18.30;53.56;101425.81;7990664;28;20673;-66
2021/08/17 08:16:46;;;;;;;15.27;7.28;;;;;;;18.23;53.08;101422.84;8002486;28;20025;-66
2021/08/17 08:20:36;;;;;;;15.15;7.05;;;;;;;18.07;53.36;101411.06;7991844;28;20047;-65
2021/08/17 08:24:27;;;;;;;13.73;6.88;;;;;;;17.85;53.31;101405.00;7988653;28;20025;-65
2021/08/17 08:28:18;;;;;;;16.20;6.55;;;;;;;17.69;53.42;101398.53;7982281;28;20036;-65
2021/08/17 08:32:08;;;;;;;11.80;5.95;;;;;;;17.56;53.62;101390.75;7985626;28;20034;-65
2021/08/17 08:35:59;;;;;;;10.73;5.63;;;;;;;17.66;53.91;101396.94;7977176;28;20045;-66
2021/08/17 08:39:50;;;;;;;14.65;7.05;;;;;;;17.73;53.76;101399.94;7982087;28;20037;-64
2021/08/17 08:43:42;;;;;;;13.23;6.80;;;;;;;17.79;54.04;101402.88;7996323;28;20031;-65
2021/08/17 08:47:37;;;;;;;13.80;6.53;;;;;;;17.87;53.72;101408.34;8006128;28;20036;-65
2021/08/17 08:51:27;;;;;;;11.30;6.05;;;;;;;17.91;53.59;101411.56;7975108;28;20354;-66
2021/08/17 08:55:18;;;;;;;12.32;6.45;;;;;;;18.06;53.68;101409.41;7977328;28;20025;-65
2021/08/17 08:59:08;;;;;;;17.23;6.30;;;;;;;18.19;53.63;101417.97;7987446;28;20040;-65
2021/08/17 09:02:59;;;;;;;15.35;7.30;;;;;;;18.25;53.59;101423.56;7993203;28;20059;-65
2021/08/17 09:06:54;;;;;;;13.07;6.55;;;;;;;18.28;53.28;101433.91;7972342;28;20040;-64
2021/08/17 09:10:45;;;;;;;11.68;6.40;;;;;;;18.36;53.20;101420.75;7967093;28;20037;-64
2021/08/17 09:14:36;;;;;;;13.20;5.55;;;;;;;18.43;52.62;101421.94;8004678;28;20040;-64
2021/08/17 09:18:33;;;;;;;14.00;6.13;;;;;;;18.42;52.94;101422.03;7981056;28;20044;-65
2021/08/17 09:22:26;;;;;;;18.13;7.00;;;;;;;18.32;52.42;101411.38;7972773;28;20090;-65
2021/08/17 09:26:30;;;;;;;11.82;6.47;;;;;;;18.15;52.36;101396.09;8004498;28;20084;-65
2021/08/17 09:30:20;;;;;;;10.45;5.93;;;;;;;17.99;52.29;101385.16;7978555;28;20493;-65
2021/08/17 09:34:11;;;;;;;11.57;6.35;;;;;;;17.97;52.51;101390.63;7987633;28;20033;-65
2021/08/17 09:38:11;;;;;;;16.45;6.88;;;;;;;17.93;52.53;101386.56;7992133;28;20496;-64
2021/08/17 09:42:16;;;;;;;13.95;7.25;;;;;;;17.81;52.22;101382.34;8001965;28;20043;-65
2021/08/17 09:46:10;;;;;;;17.23;7.30;;;;;;;17.77;52.08;101390.72;8005104;28;20036;-64
2021/08/17 09:50:27;;;;;;;13.05;6.70;;;;;;;17.72;52.03;101392.94;8010540;28;20029;-65
2021/08/17 09:54:20;;;;;;;11.18;5.97;;;;;;;17.71;52.37;101396.56;7991380;28;20135;-65
2021/08/17 09:58:18;;;;;;;13.57;6.45;;;;;;;17.66;52.01;101404.91;7995789;28;20092;-64
2021/08/17 10:02:10;;;;;;;14.60;6.57;;;;;;;17.61;51.91;101415.06;7978680;28;20044;-64
2021/08/17 10:06:02;;;;;;;12.43;6.43;;;;;;;17.57;52.14;101428.78;7971344;28;20038;-65
2021/08/17 10:09:53;;;;;;;14.30;6.93;;;;;;;17.54;51.89;101421.91;7942970;28;20040;-64
2021/08/17 10:13:44;;;;;;;12.48;5.72;;;;;;;17.51;51.78;101432.81;7938818;28;20034;-64
2021/08/17 10:17:35;;;;;;;10.73;6.07;;;;;;;17.48;51.54;101406.53;7939374;28;20084;-64
2021/08/17 10:21:27;;;;;;;13.50;6.45;;;;;;;17.44;51.38;101407.75;7965298;28;20843;-64
2021/08/17 10:25:18;;;;;;;12.43;5.85;;;;;;;17.38;51.46;101401.16;7970939;28;20029;-64
2021/08/17 10:29:25;;;;;;;11.43;4.90;;;;;;;17.32;51.53;101417.59;7968708;28;20052;-64
2021/08/17 10:33:50;;;;;;;12.27;5.63;;;;;;;17.23;51.38;101410.44;7968355;28;20371;-64
2021/08/17 10:37:41;;;;;;;8.38;5.30;;;;;;;17.22;51.63;101399.94;7962822;28;20037;-64
2021/08/17 10:41:38;;;;;;;8.85;4.95;;;;;;;17.19;51.67;101382.47;7943491;28;20412;-63
2021/08/17 10:45:28;;;;;;;11.82;5.43;;;;;;;17.24;51.48;101379.44;7959649;28;20037;-64
2021/08/17 10:49:26;;;;;;;12.88;6.60;;;;;;;17.23;51.50;101385.72;7941510;28;20417;-63
2021/08/17 10:53:35;;;;;;;10.65;4.60;;;;;;;17.22;51.30;101390.16;7939435;28;20037;-63
2021/08/17 10:57:25;;;;;;;8.35;5.10;;;;;;;17.19;51.32;101385.13;7942509;28;20042;-64
2021/08/17 11:01:34;;;;;;;6.45;4.00;;;;;;;17.12;51.05;101383.97;7943465;28;20035;-64
2021/08/17 11:05:53;;;;;;;10.23;3.90;;;;;;;17.07;50.96;101391.50;7962601;28;20093;-64
2021/08/17 11:09:44;;;;;;;8.50;4.45;;;;;;;17.03;51.02;101392.72;7939022;28;20133;-64
2021/08/17 11:13:35;;;;;;;9.00;3.95;;;;;;;16.97;50.84;101401.19;7942421;28;20038;-65
2021/08/17 11:17:26;;;;;;;7.15;3.67;;;;;;;16.86;50.70;101401.25;7940871;28;20565;-64
2021/08/17 11:21:29;;;;;;;8.07;3.95;;;;;;;16.78;50.74;101388.59;7944918;28;20033;-64
2021/08/17 11:25:20;;;;;;;5.97;3.58;;;;;;;16.75;50.83;101369.44;7940622;28;20071;-64
2021/08/17 11:29:15;;;;;;;5.28;3.00;;;;;;;16.68;50.73;101369.13;7939644;28;20503;-64
2021/08/17 11:33:06;;;;;;;4.30;2.65;;;;;;;16.62;50.68;101365.16;7937083;28;20033;-65
2021/08/17 11:37:12;;;;;;;5.22;2.70;;;;;;;16.59;50.66;101370.75;7938095;28;20275;-64
2021/08/17 11:41:02;;;;;;;9.25;2.72;;;;;;;16.57;50.48;101380.66;7944998;28;20517;-65
2021/08/17 11:44:59;;;;;;;4.72;3.22;;;;;;;16.54;50.41;101375.56;7938745;28;20116;-64
2021/08/17 11:48:50;;;;;;;4.85;2.70;;;;;;;16.51;50.18;101383.78;7953555;28;20042;-64
2021/08/17 11:52:52;;;;;;;6.00;3.00;;;;;;;16.48;50.38;101392.00;7940667;28;20116;-64
2021/08/17 11:56:42;;;;;;;3.88;2.75;;;;;;;16.47;50.59;101395.63;7940039;28;20021;-64
2021/08/17 12:00:33;;;;;;;10.60;3.53;;;;;;;16.42;50.43;101389.00;7947083;28;20034;-64
2021/08/17 12:04:24;;;;;;;6.43;3.53;;;;;;;16.38;50.52;101377.81;7938853;28;20037;-64
2021/08/17 12:08:15;;;;;;;6.47;3.70;;;;;;;16.36;50.65;101376.28;7934905;28;20029;-64
2021/08/17 12:12:07;;;;;;;6.10;3.75;;;;;;;16.34;50.51;101379.03;7940867;28;20119;-65
2021/08/17 12:15:58;;;;;;;7.35;3.22;;;;;;;16.28;50.69;101370.75;7936883;28;20038;-65
2021/08/17 12:19:49;;;;;;;5.35;3.17;;;;;;;16.34;50.58;101375.53;7952891;28;20042;-64
2021/08/17 12:23:43;;;;;;;4.57;3.03;;;;;;;16.36;50.55;101376.28;7933336;28;20048;-64
2021/08/17 12:27:34;;;;;;;9.25;3.85;;;;;;;16.39;50.66;101379.50;7942991;28;20029;-63
2021/08/17 12:31:35;;;;;;;7.43;3.72;;;;;;;16.42;50.59;101375.75;7959831;28;20038;-67
2021/08/17 12:35:36;;;;;;;4.97;3.33;;;;;;;16.45;50.70;101373.69;7938238;28;20034;-68
2021/08/17 12:39:30;;;;;;;7.60;3.13;;;;;;;16.39;50.55;101358.31;7937483;28;20065;-67
2021/08/17 12:43:22;;;;;;;5.45;2.75;;;;;;;16.41;50.57;101355.53;7951930;28;20037;-67
2021/08/17 12:47:15;;;;;;;6.35;3.35;;;;;;;16.48;50.43;101376.09;7966720;28;20699;-69
2021/08/17 12:51:05;;;;;;;5.97;2.92;;;;;;;16.48;50.48;101365.50;7964662;28;20120;-69
2021/08/17 12:54:59;;;;;;;6.47;3.22;;;;;;;16.47;50.39;101373.56;7938388;28;20060;-64
2021/08/17 12:58:50;;;;;;;10.15;3.53;;;;;;;16.44;50.42;101376.47;7955881;28;20053;-64
2021/08/17 13:02:41;;;;;;;7.07;2.95;;;;;;;16.41;50.42;101363.50;7954372;28;20055;-67
2021/08/17 13:06:31;;;;;;;5.78;2.78;;;;;;;16.39;50.23;101368.91;7944023;28;20029;-69
2021/08/17 13:10:22;;;;;;;4.60;2.30;;;;;;;16.36;50.17;101366.50;7949715;28;20033;-67
2021/08/17 13:14:13;;;;;;;3.83;2.38;;;;;;;16.34;50.39;101367.59;7949264;28;20042;-64
2021/08/17 13:18:03;;;;;;;4.93;3.08;;;;;;;16.35;50.24;101371.94;7941823;28;20056;-67
2021/08/17 13:21:54;;;;;;;4.95;2.90;;;;;;;16.39;50.44;101365.41;7956904;28;20022;-68
2021/08/17 13:25:45;;;;;;;3.97;2.60;;;;;;;16.40;50.54;101364.44;7967857;28;20033;-67
2021/08/17 13:29:36;;;;;;;4.25;2.75;;;;;;;16.34;50.53;101357.84;7968199;28;20029;-69
2021/08/17 13:33:26;;;;;;;8.02;2.67;;;;;;;16.37;50.70;101365.53;7942733;28;20033;-68
2021/08/17 13:37:17;;;;;;;3.70;2.33;;;;;;;16.37;50.90;101365.53;7944152;28;20026;-69
2021/08/17 13:41:08;;;;;;;6.15;2.88;;;;;;;16.41;50.85;101364.31;7943424;28;20037;-68
2021/08/17 13:44:58;;;;;;;4.57;2.63;;;;;;;16.43;51.05;101364.19;7948387;28;20045;-69
2021/08/17 13:48:49;;;;;;;5.18;2.97;;;;;;;16.41;51.15;101366.13;7948380;28;20518;-68
2021/08/17 13:52:39;;;;;;;5.45;3.10;;;;;;;16.42;51.40;101370.44;7939187;28;20029;-67
2021/08/17 13:56:31;;;;;;;4.78;2.78;;;;;;;16.36;51.35;101371.81;7959387;28;20103;-65
2021/08/17 14:00:21;;;;;;;4.60;2.55;;;;;;;16.29;51.35;101367.97;7944475;28;20033;-65
2021/08/17 14:04:12;;;;;;;5.40;2.28;;;;;;;16.28;51.37;101365.47;7958171;28;20084;-65
2021/08/17 14:08:03;;;;;;;4.57;2.47;;;;;;;16.31;51.49;101357.25;7937711;28;20538;-65
2021/08/17 14:11:53;;;;;;;4.68;2.17;;;;;;;16.35;51.67;101356.88;7950498;28;20521;-66
2021/08/17 14:15:44;;;;;;;3.85;2.30;;;;;;;16.33;51.75;101357.94;7957172;28;20049;-66
2021/08/17 14:19:34;;;;;;;3.47;1.92;;;;;;;16.32;51.76;101349.19;7943962;28;20041;-65
2021/08/17 14:23:25;;;;;;;3.88;2.05;;;;;;;16.41;51.86;101358.19;7947236;28;20816;-65
2021/08/17 14:27:16;;;;;;;4.05;2.45;;;;;;;16.44;51.93;101358.75;7949997;28;20366;-64
2021/08/17 14:31:06;;;;;;;4.85;2.30;;;;;;;16.46;51.91;101355.97;7970978;28;20730;-64
2021/08/17 14:34:57;;;;;;;2.45;1.58;;;;;;;16.47;51.98;101360.31;7947363;28;20035;-64
2021/08/17 14:38:50;;;;;;;2.88;1.58;;;;;;;16.44;52.06;101349.97;7938696;28;20030;-65
2021/08/17 14:42:40;;;;;;;3.88;2.33;;;;;;;16.44;52.39;101339.34;7941091;28;20078;-65
2021/08/17 14:46:32;;;;;;;3.33;1.98;;;;;;;16.45;52.14;101341.88;7966551;28;20175;-65
2021/08/17 14:50:22;;;;;;;3.28;2.15;;;;;;;16.44;52.37;101350.81;7966778;28;20052;-64
2021/08/17 14:54:13;;;;;;;4.30;2.40;;;;;;;16.41;52.10;101356.34;7967119;28;20714;-64
2021/08/17 14:58:04;;;;;;;2.72;2.00;;;;;;;16.39;52.20;101353.00;7951893;28;20132;-64
2021/08/17 15:01:55;;;;;;;4.57;2.05;;;;;;;16.37;52.20;101354.09;7949656;28;20037;-64
2021/08/17 15:05:45;;;;;;;4.47;2.05;;;;;;;16.35;52.22;101353.38;7965640;28;20028;-64
2021/08/17 15:09:39;;;;;;;3.30;2.20;;;;;;;16.33;52.13;101352.66;7951737;28;20037;-64
2021/08/17 15:13:30;;;;;;;3.55;1.95;;;;;;;16.25;52.19;101350.63;7939903;28;20493;-65
2021/08/17 15:17:21;;;;;;;2.75;1.92;;;;;;;16.22;52.17;101353.53;7942972;28;20056;-65
2021/08/17 15:21:11;;;;;;;4.18;2.42;;;;;;;16.17;52.31;101348.63;7952649;28;20037;-65
2021/08/17 15:25:04;;;;;;;7.18;3.53;;;;;;;16.14;52.35;101337.44;7943353;28;20030;-64
2021/08/17 15:28:55;;;;;;;4.95;3.08;;;;;;;16.11;52.53;101337.66;7937203;28;20041;-64
2021/08/17 15:32:46;;;;;;;2.72;2.00;;;;;;;16.08;52.43;101324.63;7938351;28;20562;-64
2021/08/17 15:36:39;;;;;;;2.78;1.90;;;;;;;16.04;52.44;101326.69;7939563;28;20628;-65
2021/08/17 15:40:29;;;;;;;3.97;2.45;;;;;;;16.01;52.42;101308.41;7936437;28;20029;-65
2021/08/17 15:44:20;;;;;;;3.08;1.83;;;;;;;15.94;52.50;101307.25;7945546;28;20029;-66
2021/08/17 15:48:10;;;;;;;3.30;2.13;;;;;;;15.91;52.50;101307.47;7966116;28;20052;-66
2021/08/17 15:52:01;;;;;;;4.65;2.38;;;;;;;15.87;52.69;101300.75;7966024;28;20048;-65
2021/08/17 15:55:52;;;;;;;3.10;2.22;;;;;;;15.82;52.50;101300.28;7963220;28;20087;-66
2021/08/17 15:59:44;;;;;;;3.88;2.08;;;;;;;15.78;52.79;101290.06;7965786;28;20095;-65
2021/08/17 16:03:34;;;;;;;3.45;2.25;;;;;;;15.77;52.79;101312.22;7946333;28;20752;-65
2021/08/17 16:07:25;;;;;;;3.05;2.10;;;;;;;15.74;52.88;101294.78;7933187;28;20026;-66
2021/08/17 16:11:16;;;;;;;4.28;2.40;;;;;;;15.73;53.20;101296.59;7937416;28;20029;-66
2021/08/17 16:15:07;;;;;;;4.40;2.03;;;;;;;15.71;53.06;101279.13;7945906;28;20048;-66
2021/08/17 16:18:58;;;;;;;5.47;2.28;;;;;;;15.68;53.07;101282.88;7939129;28;20065;-65
2021/08/17 16:22:53;;;;;;;2.95;2.08;;;;;;;15.66;53.17;101274.19;7963504;28;20075;-66
2021/08/17 16:26:44;;;;;;;2.97;1.90;;;;;;;15.64;53.07;101278.78;7966476;28;20107;-65
2021/08/17 16:30:35;;;;;;;3.13;2.22;;;;;;;15.63;53.33;101271.78;7955294;28;21232;-65
2021/08/17 16:34:25;;;;;;;2.50;1.60;;;;;;;15.55;53.21;101258.34;7940709;28;20037;-65
2021/08/17 16:38:16;;;;;;;2.58;1.90;;;;;;;15.57;53.19;101267.00;7968407;28;20612;-66
2021/08/17 16:42:07;;;;;;;2.03;1.73;;;;;;;15.53;53.31;101265.56;7971925;28;20043;-65
2021/08/17 16:45:58;;;;;;;3.50;1.80;;;;;;;15.50;53.22;101257.84;7965703;28;20087;-65
2021/08/17 16:49:49;;;;;;;3.40;1.88;;;;;;;15.33;53.89;101220.50;7944578;28;20169;-65
2021/08/17 16:53:40;;;;;;;3.13;1.85;;;;;;;15.49;53.49;101250.91;7966476;28;20029;-65
2021/08/17 16:57:30;;;;;;;2.33;1.48;;;;;;;15.49;53.47;101250.91;7972409;28;20090;-65
2021/08/17 17:01:21;;;;;;;2.22;1.80;;;;;;;15.48;53.59;101237.78;7971087;28;20542;-66
2021/08/17 17:05:11;;;;;;;3.28;1.90;;;;;;;15.47;53.58;101230.78;7956644;28;20034;-69
2021/08/17 17:09:02;;;;;;;2.55;1.75;;;;;;;15.47;53.76;101234.28;7943406;28;20037;-66
2021/08/17 17:12:53;;;;;;;3.38;1.83;;;;;;;15.47;53.90;101229.00;7954101;28;20044;-65
2021/08/17 17:16:44;;;;;;;3.85;1.90;;;;;;;15.42;53.79;101225.88;7948796;28;20026;-69
2021/08/17 17:20:34;;;;;;;3.70;1.85;;;;;;;15.44;53.81;101221.31;7971009;28;20044;-69
2021/08/17 17:24:25;;;;;;;2.83;1.88;;;;;;;15.45;53.93;101228.28;7969465;28;20032;-69
2021/08/17 17:28:16;;;;;;;2.33;1.70;;;;;;;15.40;54.02;101216.38;7956452;28;20440;-69
2021/08/17 17:32:07;;;;;;;2.92;2.08;;;;;;;15.42;53.88;101215.28;7963670;28;20686;-69
2021/08/17 17:35:58;;;;;;;3.67;2.17;;;;;;;15.41;54.08;101223.38;7970830;28;20026;-65
2021/08/17 17:39:48;;;;;;;2.42;1.85;;;;;;;15.39;54.02;101217.34;7965295;28;20047;-66
2021/08/17 17:43:39;;;;;;;2.42;1.83;;;;;;;15.37;54.07;101216.63;7967922;28;20043;-65
2021/08/17 17:47:29;;;;;;;2.28;1.95;;;;;;;15.35;54.22;101213.25;7968135;28;20029;-66
2021/08/17 17:51:20;;;;;;;3.50;1.85;;;;;;;15.33;54.24;101209.91;7942369;28;20148;-69